sensor_id;sensor_type;location;lat;lon;timestamp;pressure;altitude;pressure_sealevel;temperature;humidity
32789;BME280;19141;48.980;8.410;2022-09-17T04:15:59;100026.38;;;9.55;100.00
32789;BME280;19141;48.980;8.410;2022-09-17T04:18:24;100014.44;;;9.50;100.00
32789;BME280;19141;48.980;8.410;2022-09-17T04:20:51;100023.22;;;9.51;100.00
32789;BME280;19141;48.980;8.410;2022-09-17T04:23:16;100036.19;;;9.54;100.00
32789;BME280;19141;48.980;8.410;2022-09-17T04:25:41;100040.38;;;9.48;100.00
32789;BME280;19141;48.980;8.410;2022-09-17T04:28:07;100049.16;;;9.49;100.00
32789;BME280;19141;48.980;8.410;2022-09-17T04:30:32;100048.16;;;9.50;100.00
32789;BME280;19141;48.980;8.410;2022-09-17T04:32:58;100053.66;;;9.48;100.00
32789;BME280;19141;48.980;8.410;2022-09-17T04:35:23;100060.31;;;9.52;100.00
32789;BME280;19141;48.980;8.410;2022-09-17T04:37:56;100050.50;;;9.53;100.00
32789;BME280;19141;48.980;8.410;2022-09-17T04:40:23;100044.34;;;9.52;100.00
32789;BME280;19141;48.980;8.410;2022-09-17T04:42:53;100056.97;;;9.50;100.00
32789;BME280;19141;48.980;8.410;2022-09-17T04:45:19;100056.66;;;9.54;100.00
32789;BME280;19141;48.980;8.410;2022-09-17T04:47:44;100059.47;;;9.52;100.00
32789;BME280;19141;48.980;8.410;2022-09-17T04:50:10;100062.78;;;9.54;100.00
32789;BME280;19141;48.980;8.410;2022-09-17T04:52:36;100064.63;;;9.54;100.00
32789;BME280;19141;48.980;8.410;2022-09-17T04:55:02;100058.31;;;9.55;100.00
32789;BME280;19141;48.980;8.410;2022-09-17T04:57:27;100060.13;;;9.54;100.00
32789;BME280;19141;48.980;8.410;2022-09-17T04:59:53;100060.97;;;9.55;100.00
32789;BME280;19141;48.980;8.410;2022-09-17T05:02:18;100062.63;;;9.56;100.00
32789;BME280;19141;48.980;8.410;2022-09-17T05:04:43;100064.81;;;9.52;100.00
32789;BME280;19141;48.980;8.410;2022-09-17T05:07:09;100063.63;;;9.55;100.00
32789;BME280;19141;48.980;8.410;2022-09-17T05:09:34;100062.63;;;9.56;100.00
32789;BME280;19141;48.980;8.410;2022-09-17T05:12:00;100066.47;;;9.53;100.00
32789;BME280;19141;48.980;8.410;2022-09-17T05:14:25;100074.25;;;9.55;100.00
32789;BME280;19141;48.980;8.410;2022-09-17T05:16:50;100083.25;;;9.54;100.00
32789;BME280;19141;48.980;8.410;2022-09-17T05:19:16;100081.59;;;9.52;100.00
32789;BME280;19141;48.980;8.410;2022-09-17T05:21:41;100087.72;;;9.53;100.00
32789;BME280;19141;48.980;8.410;2022-09-17T05:24:07;100092.53;;;9.49;100.00
32789;BME280;19141;48.980;8.410;2022-09-17T05:26:33;100087.59;;;9.46;100.00
32789;BME280;19141;48.980;8.410;2022-09-17T05:28:58;100086.56;;;9.47;100.00
32789;BME280;19141;48.980;8.410;2022-09-17T05:31:23;100088.41;;;9.47;100.00
32789;BME280;19141;48.980;8.410;2022-09-17T05:33:49;100090.56;;;9.43;100.00
32789;BME280;19141;48.980;8.410;2022-09-17T05:36:14;100093.91;;;9.45;100.00
32789;BME280;19141;48.980;8.410;2022-09-17T05:38:40;100098.22;;;9.46;100.00
32789;BME280;19141;48.980;8.410;2022-09-17T05:41:05;100100.88;;;9.46;100.00
32789;BME280;19141;48.980;8.410;2022-09-17T05:43:32;100100.88;;;9.46;100.00
32789;BME280;19141;48.980;8.410;2022-09-17T05:46:04;100101.03;;;9.45;100.00
32789;BME280;19141;48.980;8.410;2022-09-17T05:48:30;100101.19;;;9.43;100.00
32789;BME280;19141;48.980;8.410;2022-09-17T05:50:56;100112.16;;;9.48;100.00
32789;BME280;19141;48.980;8.410;2022-09-17T05:53:22;100108.16;;;9.44;100.00
32789;BME280;19141;48.980;8.410;2022-09-17T05:55:48;100103.19;;;9.41;100.00
32789;BME280;19141;48.980;8.410;2022-09-17T05:58:15;100103.38;;;9.40;100.00
32789;BME280;19141;48.980;8.410;2022-09-17T06:00:41;100107.34;;;9.36;100.00
32789;BME280;19141;48.980;8.410;2022-09-17T06:03:09;100112.69;;;9.28;100.00
32789;BME280;19141;48.980;8.410;2022-09-17T06:05:35;100118.84;;;9.20;100.00
32789;BME280;19141;48.980;8.410;2022-09-17T06:08:00;100113.84;;;9.17;100.00
32789;BME280;19141;48.980;8.410;2022-09-17T06:10:26;100111.88;;;9.11;100.00
32789;BME280;19141;48.980;8.410;2022-09-17T06:12:56;100123.50;;;9.10;100.00
32789;BME280;19141;48.980;8.410;2022-09-17T06:15:22;100119.69;;;9.04;100.00
32789;BME280;19141;48.980;8.410;2022-09-17T06:17:47;100117.38;;;9.01;100.00
32789;BME280;19141;48.980;8.410;2022-09-17T06:20:12;100129.97;;;8.99;100.00
32789;BME280;19141;48.980;8.410;2022-09-17T06:22:40;100132.78;;;8.97;100.00
32789;BME280;19141;48.980;8.410;2022-09-17T06:25:06;100135.97;;;9.01;100.00
32789;BME280;19141;48.980;8.410;2022-09-17T06:27:33;100129.97;;;8.99;100.00
32789;BME280;19141;48.980;8.410;2022-09-17T06:29:58;100133.13;;;8.94;100.00
32789;BME280;19141;48.980;8.410;2022-09-17T06:32:24;100129.97;;;8.91;100.00
32789;BME280;19141;48.980;8.410;2022-09-17T06:34:49;100133.28;;;8.93;100.00
32789;BME280;19141;48.980;8.410;2022-09-17T06:37:15;100126.81;;;8.95;100.00
32789;BME280;19141;48.980;8.410;2022-09-17T06:39:40;100131.78;;;8.98;100.00
32789;BME280;19141;48.980;8.410;2022-09-17T06:42:06;100117.03;;;8.96;100.00
32789;BME280;19141;48.980;8.410;2022-09-17T06:44:32;100127.81;;;9.03;100.00
32789;BME280;19141;48.980;8.410;2022-09-17T06:46:57;100130.97;;;9.06;100.00
32789;BME280;19141;48.980;8.410;2022-09-17T06:49:22;100138.25;;;9.12;100.00
32789;BME280;19141;48.980;8.410;2022-09-17T06:51:48;100136.63;;;9.19;100.00
32789;BME280;19141;48.980;8.410;2022-09-17T06:54:14;100141.78;;;9.21;100.00
32789;BME280;19141;48.980;8.410;2022-09-17T06:56:39;100134.44;;;9.23;100.00
32789;BME280;19141;48.980;8.410;2022-09-17T06:59:04;100143.59;;;9.29;100.00
32789;BME280;19141;48.980;8.410;2022-09-17T07:01:30;100144.75;;;9.34;100.00
32789;BME280;19141;48.980;8.410;2022-09-17T07:03:55;100135.41;;;9.38;100.00
32789;BME280;19141;48.980;8.410;2022-09-17T07:06:21;100134.09;;;9.42;100.00
32789;BME280;19141;48.980;8.410;2022-09-17T07:08:46;100143.25;;;9.48;100.00
32789;BME280;19141;48.980;8.410;2022-09-17T07:11:12;100136.09;;;9.48;100.00
32789;BME280;19141;48.980;8.410;2022-09-17T07:13:38;100131.94;;;9.54;100.00
32789;BME280;19141;48.980;8.410;2022-09-17T07:16:04;100144.38;;;9.62;100.00
32789;BME280;19141;48.980;8.410;2022-09-17T07:18:31;100149.19;;;9.66;100.00
32789;BME280;19141;48.980;8.410;2022-09-17T07:21:00;100145.69;;;9.74;100.00
32789;BME280;19141;48.980;8.410;2022-09-17T07:23:31;100154.28;;;9.84;100.00
32789;BME280;19141;48.980;8.410;2022-09-17T07:26:05;100155.44;;;9.90;100.00
32789;BME280;19141;48.980;8.410;2022-09-17T07:28:31;100162.22;;;10.00;100.00
32789;BME280;19141;48.980;8.410;2022-09-17T07:30:57;100154.03;;;10.10;100.00
32789;BME280;19141;48.980;8.410;2022-09-17T07:33:24;100150.84;;;10.15;100.00
32789;BME280;19141;48.980;8.410;2022-09-17T07:36:00;100166.19;;;10.13;100.00
32789;BME280;19141;48.980;8.410;2022-09-17T07:38:27;100163.47;;;10.29;100.00
32789;BME280;19141;48.980;8.410;2022-09-17T07:43:26;100161.53;;;10.54;100.00
32789;BME280;19141;48.980;8.410;2022-09-17T07:45:53;100169.25;;;10.72;100.00
32789;BME280;19141;48.980;8.410;2022-09-17T07:48:19;100172.50;;;10.82;100.00
32789;BME280;19141;48.980;8.410;2022-09-17T07:50:45;100174.19;;;10.83;100.00
32789;BME280;19141;48.980;8.410;2022-09-17T07:53:10;100176.84;;;10.83;100.00
32789;BME280;19141;48.980;8.410;2022-09-17T07:55:36;100182.81;;;10.85;100.00
32789;BME280;19141;48.980;8.410;2022-09-17T07:58:01;100184.66;;;10.84;100.00
32789;BME280;19141;48.980;8.410;2022-09-17T08:00:27;100183.13;;;10.90;100.00
32789;BME280;19141;48.980;8.410;2022-09-17T08:02:55;100181.94;;;10.93;100.00
32789;BME280;19141;48.980;8.410;2022-09-17T08:05:22;100182.34;;;11.04;100.00
32789;BME280;19141;48.980;8.410;2022-09-17T08:07:53;100180.63;;;11.11;100.00
32789;BME280;19141;48.980;8.410;2022-09-17T08:10:20;100181.13;;;11.15;100.00
32789;BME280;19141;48.980;8.410;2022-09-17T08:12:49;100173.38;;;11.20;100.00
32789;BME280;19141;48.980;8.410;2022-09-17T08:15:16;100173.06;;;11.23;100.00
32789;BME280;19141;48.980;8.410;2022-09-17T08:17:43;100179.03;;;11.25;100.00
32789;BME280;19141;48.980;8.410;2022-09-17T08:20:09;100177.81;;;11.28;100.00
32789;BME280;19141;48.980;8.410;2022-09-17T08:22:34;100179.25;;;11.38;100.00
32789;BME280;19141;48.980;8.410;2022-09-17T08:24:59;100181.69;;;11.48;99.47
32789;BME280;19141;48.980;8.410;2022-09-17T08:27:25;100179.56;;;11.58;98.17
32789;BME280;19141;48.980;8.410;2022-09-17T08:29:50;100170.94;;;11.56;96.06
32789;BME280;19141;48.980;8.410;2022-09-17T08:32:16;100182.72;;;11.77;96.06
32789;BME280;19141;48.980;8.410;2022-09-17T08:34:41;100172.06;;;11.77;95.22
32789;BME280;19141;48.980;8.410;2022-09-17T08:37:06;100188.19;;;11.83;93.76
32789;BME280;19141;48.980;8.410;2022-09-17T08:39:32;100188.09;;;11.91;95.54
32789;BME280;19141;48.980;8.410;2022-09-17T08:44:43;100190.81;;;12.06;93.90
32789;BME280;19141;48.980;8.410;2022-09-17T08:55:13;100202.28;;;11.92;96.86
32789;BME280;19141;48.980;8.410;2022-09-17T09:00:25;100215.38;;;11.79;95.41
32789;BME280;19141;48.980;8.410;2022-09-17T09:03:16;100207.38;;;11.79;94.80
32789;BME280;19141;48.980;8.410;2022-09-17T09:05:55;100193.34;;;11.85;95.44
32789;BME280;19141;48.980;8.410;2022-09-17T09:11:05;100191.25;;;11.95;93.29
32789;BME280;19141;48.980;8.410;2022-09-17T09:13:44;100194.09;;;12.23;94.43
32789;BME280;19141;48.980;8.410;2022-09-17T09:16:17;100196.00;;;12.44;91.62
32789;BME280;19141;48.980;8.410;2022-09-17T09:18:44;100188.25;;;12.49;92.06
32789;BME280;19141;48.980;8.410;2022-09-17T09:21:31;100184.03;;;12.76;90.03
32789;BME280;19141;48.980;8.410;2022-09-17T09:24:21;100191.28;;;13.18;92.49
32789;BME280;19141;48.980;8.410;2022-09-17T09:27:14;100193.25;;;13.52;88.51
32789;BME280;19141;48.980;8.410;2022-09-17T09:29:47;100184.41;;;13.52;85.00
32789;BME280;19141;48.980;8.410;2022-09-17T09:32:45;100194.06;;;13.53;85.06
32789;BME280;19141;48.980;8.410;2022-09-17T09:35:23;100190.72;;;13.44;82.94
32789;BME280;19141;48.980;8.410;2022-09-17T09:38:17;100189.06;;;13.43;82.57
32789;BME280;19141;48.980;8.410;2022-09-17T09:40:56;100197.34;;;13.76;83.27
32789;BME280;19141;48.980;8.410;2022-09-17T09:43:35;100201.38;;;13.94;85.77
32789;BME280;19141;48.980;8.410;2022-09-17T09:49:04;100191.34;;;14.02;81.63
32789;BME280;19141;48.980;8.410;2022-09-17T09:54:42;100200.13;;;14.24;78.07
32789;BME280;19141;48.980;8.410;2022-09-17T09:57:14;100179.69;;;14.64;77.52
32789;BME280;19141;48.980;8.410;2022-09-17T09:59:41;100196.75;;;15.31;76.88
32789;BME280;19141;48.980;8.410;2022-09-17T10:02:07;100180.00;;;16.02;76.58
32789;BME280;19141;48.980;8.410;2022-09-17T10:04:33;100175.66;;;16.66;68.82
32789;BME280;19141;48.980;8.410;2022-09-17T10:07:04;100178.50;;;17.16;66.62
32789;BME280;19141;48.980;8.410;2022-09-17T10:09:32;100177.69;;;17.65;61.85
32789;BME280;19141;48.980;8.410;2022-09-17T10:12:03;100179.63;;;17.83;60.71
32789;BME280;19141;48.980;8.410;2022-09-17T10:14:31;100173.44;;;17.26;60.40
32789;BME280;19141;48.980;8.410;2022-09-17T10:22:42;100172.44;;;15.79;66.36
32789;BME280;19141;48.980;8.410;2022-09-17T10:25:28;100173.84;;;15.82;69.49
32789;BME280;19141;48.980;8.410;2022-09-17T10:27:55;100163.72;;;15.51;70.38
32789;BME280;19141;48.980;8.410;2022-09-17T10:30:21;100167.03;;;15.13;70.58
32789;BME280;19141;48.980;8.410;2022-09-17T10:33:27;100158.31;;;14.84;70.93
32789;BME280;19141;48.980;8.410;2022-09-17T10:35:58;100159.50;;;14.62;72.96
32789;BME280;19141;48.980;8.410;2022-09-17T10:38:27;100155.88;;;15.29;71.41
32789;BME280;19141;48.980;8.410;2022-09-17T10:43:32;100140.53;;;17.24;62.07
32789;BME280;19141;48.980;8.410;2022-09-17T10:45:58;100146.25;;;17.09;60.20
32789;BME280;19141;48.980;8.410;2022-09-17T10:48:28;100139.09;;;16.96;59.96
32789;BME280;19141;48.980;8.410;2022-09-17T10:50:56;100139.69;;;16.60;62.73
32789;BME280;19141;48.980;8.410;2022-09-17T10:53:23;100142.31;;;16.28;63.71
32789;BME280;19141;48.980;8.410;2022-09-17T11:14:39;100133.31;;;14.71;72.98
32789;BME280;19141;48.980;8.410;2022-09-17T11:20:14;100138.22;;;14.54;72.94
32789;BME280;19141;48.980;8.410;2022-09-17T11:28:07;100132.03;;;14.53;73.95
32789;BME280;19141;48.980;8.410;2022-09-17T11:34:07;100126.69;;;14.60;70.48
32789;BME280;19141;48.980;8.410;2022-09-17T11:37:19;100118.88;;;14.65;68.25
32789;BME280;19141;48.980;8.410;2022-09-17T11:42:30;100119.56;;;15.40;67.28
32789;BME280;19141;48.980;8.410;2022-09-17T11:45:19;100108.50;;;16.01;64.11
32789;BME280;19141;48.980;8.410;2022-09-17T11:47:57;100120.66;;;16.10;62.44
32789;BME280;19141;48.980;8.410;2022-09-17T11:50:25;100128.19;;;15.88;64.48
32789;BME280;19141;48.980;8.410;2022-09-17T11:58:10;100149.47;;;15.43;66.76
32789;BME280;19141;48.980;8.410;2022-09-17T12:00:44;100165.19;;;15.20;68.32
32789;BME280;19141;48.980;8.410;2022-09-17T12:03:17;100191.91;;;14.74;75.59
32789;BME280;19141;48.980;8.410;2022-09-17T12:05:55;100179.19;;;14.06;80.19
32789;BME280;19141;48.980;8.410;2022-09-17T12:08:32;100192.63;;;13.78;83.58
32789;BME280;19141;48.980;8.410;2022-09-17T12:11:05;100170.56;;;13.48;84.92
32789;BME280;19141;48.980;8.410;2022-09-17T12:13:49;100167.22;;;13.18;84.24
32789;BME280;19141;48.980;8.410;2022-09-17T12:16:29;100178.34;;;13.00;88.32
32789;BME280;19141;48.980;8.410;2022-09-17T12:21:43;100176.41;;;12.73;89.62
32789;BME280;19141;48.980;8.410;2022-09-17T12:24:25;100169.91;;;12.61;93.43
32789;BME280;19141;48.980;8.410;2022-09-17T12:35:13;100149.31;;;12.40;100.00
32789;BME280;19141;48.980;8.410;2022-09-17T12:51:55;100144.47;;;12.86;100.00
32789;BME280;19141;48.980;8.410;2022-09-17T12:55:02;100147.84;;;12.95;100.00
32789;BME280;19141;48.980;8.410;2022-09-17T12:57:41;100138.16;;;13.15;100.00
32789;BME280;19141;48.980;8.410;2022-09-17T13:00:14;100137.78;;;13.40;100.00
32789;BME280;19141;48.980;8.410;2022-09-17T13:14:00;100128.19;;;14.82;87.06
32789;BME280;19141;48.980;8.410;2022-09-17T13:16:47;100129.28;;;15.28;85.90
32789;BME280;19141;48.980;8.410;2022-09-17T13:21:59;100117.19;;;17.43;81.77
32789;BME280;19141;48.980;8.410;2022-09-17T13:24:28;100106.66;;;18.03;71.21
32789;BME280;19141;48.980;8.410;2022-09-17T13:26:56;100105.19;;;18.18;66.83
32789;BME280;19141;48.980;8.410;2022-09-17T13:32:50;100095.38;;;18.24;64.74
32789;BME280;19141;48.980;8.410;2022-09-17T13:40:33;100086.16;;;16.90;70.25
32789;BME280;19141;48.980;8.410;2022-09-17T13:45:28;100091.59;;;16.45;76.83
32789;BME280;19141;48.980;8.410;2022-09-17T13:47:57;100091.16;;;16.42;79.73
32789;BME280;19141;48.980;8.410;2022-09-17T13:50:30;100086.47;;;16.69;76.42
32789;BME280;19141;48.980;8.410;2022-09-17T13:52:58;100084.38;;;17.27;72.32
32789;BME280;19141;48.980;8.410;2022-09-17T13:58:20;100082.09;;;17.93;64.19
32789;BME280;19141;48.980;8.410;2022-09-17T14:00:59;100079.66;;;17.66;65.45
32789;BME280;19141;48.980;8.410;2022-09-17T14:13:48;100089.75;;;16.39;65.43
32789;BME280;19141;48.980;8.410;2022-09-17T14:19:32;100096.38;;;15.92;69.39
32789;BME280;19141;48.980;8.410;2022-09-17T14:22:12;100087.97;;;15.48;70.72
32789;BME280;19141;48.980;8.410;2022-09-17T14:27:13;100092.09;;;15.18;72.23
32789;BME280;19141;48.980;8.410;2022-09-17T14:29:52;100091.50;;;15.03;73.93
32789;BME280;19141;48.980;8.410;2022-09-17T14:35:15;100082.63;;;14.96;74.20
32789;BME280;19141;48.980;8.410;2022-09-17T14:37:43;100086.34;;;14.95;76.49
32789;BME280;19141;48.980;8.410;2022-09-17T14:40:14;100086.34;;;14.88;79.12
32789;BME280;19141;48.980;8.410;2022-09-17T14:42:41;100087.97;;;14.89;74.34
32789;BME280;19141;48.980;8.410;2022-09-17T14:45:39;100089.63;;;14.90;73.45
32789;BME280;19141;48.980;8.410;2022-09-17T14:48:28;100088.81;;;14.89;73.40
32789;BME280;19141;48.980;8.410;2022-09-17T14:53:42;100076.63;;;14.74;70.40
32789;BME280;19141;48.980;8.410;2022-09-17T14:56:12;100082.63;;;14.82;71.61
32789;BME280;19141;48.980;8.410;2022-09-17T14:58:41;100073.53;;;14.83;68.11
32789;BME280;19141;48.980;8.410;2022-09-17T15:01:21;100081.78;;;14.82;68.37
32789;BME280;19141;48.980;8.410;2022-09-17T15:03:47;100081.56;;;14.77;71.03
32789;BME280;19141;48.980;8.410;2022-09-17T15:06:19;100072.69;;;14.70;69.59
32789;BME280;19141;48.980;8.410;2022-09-17T15:08:45;100087.16;;;14.82;67.55
32789;BME280;19141;48.980;8.410;2022-09-17T15:11:11;100087.53;;;14.79;69.73
32789;BME280;19141;48.980;8.410;2022-09-17T15:13:49;100092.28;;;14.63;70.89
32789;BME280;19141;48.980;8.410;2022-09-17T15:16:19;100078.84;;;14.57;71.87
32789;BME280;19141;48.980;8.410;2022-09-17T15:18:49;100077.19;;;14.49;70.86
32789;BME280;19141;48.980;8.410;2022-09-17T15:21:29;100094.72;;;14.52;71.30
32789;BME280;19141;48.980;8.410;2022-09-17T15:24:03;100091.16;;;14.45;74.82
32789;BME280;19141;48.980;8.410;2022-09-17T15:26:38;100086.59;;;14.38;75.02
32789;BME280;19141;48.980;8.410;2022-09-17T15:29:04;100085.41;;;14.41;74.25
32789;BME280;19141;48.980;8.410;2022-09-17T15:31:30;100079.84;;;14.43;72.43
32789;BME280;19141;48.980;8.410;2022-09-17T15:33:58;100087.94;;;14.56;72.88
32789;BME280;19141;48.980;8.410;2022-09-17T15:36:26;100077.44;;;14.68;72.31
32789;BME280;19141;48.980;8.410;2022-09-17T15:38:52;100074.56;;;14.69;72.19
32789;BME280;19141;48.980;8.410;2022-09-17T15:41:23;100073.75;;;14.82;69.45
32789;BME280;19141;48.980;8.410;2022-09-17T15:43:49;100072.72;;;14.83;71.41
32789;BME280;19141;48.980;8.410;2022-09-17T15:46:26;100075.78;;;14.86;70.17
32789;BME280;19141;48.980;8.410;2022-09-17T15:49:00;100069.00;;;14.77;69.03
32789;BME280;19141;48.980;8.410;2022-09-17T15:51:28;100073.72;;;14.69;71.40
32789;BME280;19141;48.980;8.410;2022-09-17T15:54:00;100065.47;;;14.63;69.74
32789;BME280;19141;48.980;8.410;2022-09-17T15:56:44;100067.31;;;14.56;68.78
32789;BME280;19141;48.980;8.410;2022-09-17T15:59:27;100075.56;;;14.55;71.11
32789;BME280;19141;48.980;8.410;2022-09-17T16:01:59;100072.25;;;14.53;72.21
32789;BME280;19141;48.980;8.410;2022-09-17T16:04:32;100074.25;;;14.44;72.71
32789;BME280;19141;48.980;8.410;2022-09-17T16:07:15;100069.72;;;14.45;70.68
32789;BME280;19141;48.980;8.410;2022-09-17T16:09:52;100091.97;;;14.38;73.37
32789;BME280;19141;48.980;8.410;2022-09-17T16:12:25;100095.41;;;14.19;78.27
32789;BME280;19141;48.980;8.410;2022-09-17T16:14:55;100102.56;;;14.05;82.41
32789;BME280;19141;48.980;8.410;2022-09-17T16:17:29;100107.63;;;13.87;84.96
32789;BME280;19141;48.980;8.410;2022-09-17T16:20:14;100107.16;;;13.77;85.50
32789;BME280;19141;48.980;8.410;2022-09-17T16:22:42;100103.50;;;13.50;90.14
32789;BME280;19141;48.980;8.410;2022-09-17T16:25:08;100114.69;;;13.32;90.82
32789;BME280;19141;48.980;8.410;2022-09-17T16:27:42;100105.00;;;13.10;94.02
32789;BME280;19141;48.980;8.410;2022-09-17T16:30:13;100102.38;;;13.16;95.69
32789;BME280;19141;48.980;8.410;2022-09-17T16:32:40;100107.13;;;12.93;99.57
32789;BME280;19141;48.980;8.410;2022-09-17T16:35:06;100108.09;;;12.85;99.10
32789;BME280;19141;48.980;8.410;2022-09-17T16:37:31;100112.47;;;12.93;100.00
32789;BME280;19141;48.980;8.410;2022-09-17T16:39:57;100117.63;;;12.73;100.00
32789;BME280;19141;48.980;8.410;2022-09-17T16:42:22;100129.63;;;12.84;100.00
32789;BME280;19141;48.980;8.410;2022-09-17T16:44:48;100138.31;;;12.86;100.00
32789;BME280;19141;48.980;8.410;2022-09-17T16:47:13;100144.63;;;12.78;100.00
32789;BME280;19141;48.980;8.410;2022-09-17T16:49:38;100153.47;;;12.64;100.00
32789;BME280;19141;48.980;8.410;2022-09-17T16:52:04;100123.09;;;12.29;100.00
32789;BME280;19141;48.980;8.410;2022-09-17T16:54:29;100120.22;;;12.30;100.00
32789;BME280;19141;48.980;8.410;2022-09-17T16:56:55;100120.06;;;12.17;100.00
32789;BME280;19141;48.980;8.410;2022-09-17T16:59:20;100122.66;;;12.10;100.00
32789;BME280;19141;48.980;8.410;2022-09-17T17:01:45;100125.03;;;12.05;100.00
32789;BME280;19141;48.980;8.410;2022-09-17T17:04:12;100120.09;;;12.02;100.00
32789;BME280;19141;48.980;8.410;2022-09-17T17:06:38;100127.53;;;11.92;100.00
32789;BME280;19141;48.980;8.410;2022-09-17T17:09:03;100133.97;;;11.98;100.00
32789;BME280;19141;48.980;8.410;2022-09-17T17:11:28;100132.34;;;11.97;100.00
32789;BME280;19141;48.980;8.410;2022-09-17T17:13:54;100135.53;;;11.92;100.00
32789;BME280;19141;48.980;8.410;2022-09-17T17:16:23;100133.25;;;11.89;100.00
32789;BME280;19141;48.980;8.410;2022-09-17T17:18:50;100140.78;;;11.85;100.00
32789;BME280;19141;48.980;8.410;2022-09-17T17:21:18;100134.50;;;11.78;100.00
32789;BME280;19141;48.980;8.410;2022-09-17T17:23:43;100146.81;;;11.79;100.00
32789;BME280;19141;48.980;8.410;2022-09-17T17:26:08;100153.69;;;11.82;100.00
32789;BME280;19141;48.980;8.410;2022-09-17T17:28:35;100153.38;;;11.77;100.00
32789;BME280;19141;48.980;8.410;2022-09-17T17:31:01;100159.91;;;11.74;100.00
32789;BME280;19141;48.980;8.410;2022-09-17T17:33:27;100161.38;;;11.77;100.00
32789;BME280;19141;48.980;8.410;2022-09-17T17:35:53;100161.28;;;11.70;100.00
32789;BME280;19141;48.980;8.410;2022-09-17T17:38:18;100165.97;;;11.68;100.00
32789;BME280;19141;48.980;8.410;2022-09-17T17:40:44;100171.13;;;11.69;100.00
32789;BME280;19141;48.980;8.410;2022-09-17T17:43:10;100160.81;;;11.66;100.00
32789;BME280;19141;48.980;8.410;2022-09-17T17:45:40;100182.00;;;11.68;100.00
32789;BME280;19141;48.980;8.410;2022-09-17T17:48:05;100164.47;;;11.51;100.00
32789;BME280;19141;48.980;8.410;2022-09-17T17:50:32;100183.25;;;11.57;100.00
32789;BME280;19141;48.980;8.410;2022-09-17T17:52:57;100177.91;;;11.57;100.00
32789;BME280;19141;48.980;8.410;2022-09-17T17:55:23;100176.44;;;11.55;100.00
32789;BME280;19141;48.980;8.410;2022-09-17T17:57:55;100180.97;;;11.54;100.00
32789;BME280;19141;48.980;8.410;2022-09-17T18:00:22;100180.88;;;11.62;100.00
32789;BME280;19141;48.980;8.410;2022-09-17T18:02:48;100184.19;;;11.64;100.00
32789;BME280;19141;48.980;8.410;2022-09-17T18:05:14;100182.59;;;11.55;100.00
32789;BME280;19141;48.980;8.410;2022-09-17T18:07:39;100180.28;;;11.52;100.00
32789;BME280;19141;48.980;8.410;2022-09-17T18:10:05;100180.97;;;11.54;100.00
32789;BME280;19141;48.980;8.410;2022-09-17T18:12:31;100185.81;;;11.51;100.00
32789;BME280;19141;48.980;8.410;2022-09-17T18:14:56;100184.78;;;11.52;100.00
32789;BME280;19141;48.980;8.410;2022-09-17T18:17:22;100193.28;;;11.55;100.00
32789;BME280;19141;48.980;8.410;2022-09-17T18:19:48;100190.78;;;11.54;100.00
32789;BME280;19141;48.980;8.410;2022-09-17T18:22:13;100233.84;;;11.65;100.00
32789;BME280;19141;48.980;8.410;2022-09-17T18:24:39;100269.50;;;11.50;100.00
32789;BME280;19141;48.980;8.410;2022-09-17T18:27:04;100284.78;;;11.33;100.00
32789;BME280;19141;48.980;8.410;2022-09-17T18:29:29;100288.78;;;10.75;100.00
32789;BME280;19141;48.980;8.410;2022-09-17T18:31:55;100270.66;;;10.23;100.00
32789;BME280;19141;48.980;8.410;2022-09-17T18:34:20;100275.78;;;10.16;100.00
32789;BME280;19141;48.980;8.410;2022-09-17T18:36:45;100279.50;;;9.99;100.00
32789;BME280;19141;48.980;8.410;2022-09-17T18:39:12;100265.38;;;9.82;100.00
32789;BME280;19141;48.980;8.410;2022-09-17T18:41:39;100267.88;;;9.75;100.00
32789;BME280;19141;48.980;8.410;2022-09-17T18:44:08;100266.03;;;9.68;100.00
32789;BME280;19141;48.980;8.410;2022-09-17T18:46:34;100262.53;;;9.75;100.00
32789;BME280;19141;48.980;8.410;2022-09-17T18:49:00;100269.38;;;9.78;100.00
32789;BME280;19141;48.980;8.410;2022-09-17T18:51:27;100268.03;;;9.74;100.00
32789;BME280;19141;48.980;8.410;2022-09-17T18:53:53;100264.19;;;9.76;100.00
32789;BME280;19141;48.980;8.410;2022-09-17T18:56:26;100276.69;;;9.68;100.00
32789;BME280;19141;48.980;8.410;2022-09-17T18:58:55;100282.31;;;9.65;100.00
32789;BME280;19141;48.980;8.410;2022-09-17T19:01:26;100283.31;;;9.56;100.00
32789;BME280;19141;48.980;8.410;2022-09-17T19:03:53;100277.34;;;9.62;100.00
32789;BME280;19141;48.980;8.410;2022-09-17T19:06:19;100292.47;;;9.61;100.00
32789;BME280;19141;48.980;8.410;2022-09-17T19:08:45;100280.53;;;9.65;100.00
32789;BME280;19141;48.980;8.410;2022-09-17T19:11:11;100286.66;;;9.58;100.00
32789;BME280;19141;48.980;8.410;2022-09-17T19:13:37;100278.53;;;9.59;100.00
32789;BME280;19141;48.980;8.410;2022-09-17T19:16:04;100276.66;;;9.51;100.00
32789;BME280;19141;48.980;8.410;2022-09-17T19:18:29;100280.03;;;9.45;100.00
32789;BME280;19141;48.980;8.410;2022-09-17T19:21:06;100285.16;;;9.47;100.00
32789;BME280;19141;48.980;8.410;2022-09-17T19:23:32;100291.47;;;9.46;100.00
32789;BME280;19141;48.980;8.410;2022-09-17T19:26:11;100287.31;;;9.43;100.00
32789;BME280;19141;48.980;8.410;2022-09-17T19:28:37;100289.78;;;9.45;100.00
32789;BME280;19141;48.980;8.410;2022-09-17T19:31:04;100291.47;;;9.46;100.00
32789;BME280;19141;48.980;8.410;2022-09-17T19:33:30;100294.63;;;9.49;100.00
32789;BME280;19141;48.980;8.410;2022-09-17T19:35:59;100298.81;;;9.52;100.00
32789;BME280;19141;48.980;8.410;2022-09-17T19:38:25;100302.94;;;9.55;100.00
32789;BME280;19141;48.980;8.410;2022-09-17T19:40:58;100308.75;;;9.58;100.00